sensor_id;sensor_type;location;lat;lon;timestamp;pressure;altitude;pressure_sealevel;temperature;humidity
52839;BME280;39219;53.678;9.856;2022-09-09T00:00:24;100603.56;;;14.33;100.00
52839;BME280;39219;53.678;9.856;2022-09-09T00:02:58;100601.69;;;14.35;100.00
52839;BME280;39219;53.678;9.856;2022-09-09T00:05:32;100602.03;;;14.27;100.00
52839;BME280;39219;53.678;9.856;2022-09-09T00:08:02;100599.34;;;14.27;100.00
52839;BME280;39219;53.678;9.856;2022-09-09T00:10:33;100591.00;;;14.35;100.00
52839;BME280;39219;53.678;9.856;2022-09-09T00:13:08;100593.44;;;14.41;100.00
52839;BME280;39219;53.678;9.856;2022-09-09T00:15:46;100596.47;;;14.32;100.00
52839;BME280;39219;53.678;9.856;2022-09-09T00:18:23;100591.69;;;14.40;100.00
52839;BME280;39219;53.678;9.856;2022-09-09T00:20:56;100589.16;;;14.37;100.00
52839;BME280;39219;53.678;9.856;2022-09-09T00:23:25;100583.00;;;14.35;100.00
52839;BME280;39219;53.678;9.856;2022-09-09T00:26:01;100606.66;;;14.44;100.00
52839;BME280;39219;53.678;9.856;2022-09-09T00:28:31;100602.59;;;14.35;100.00
52839;BME280;39219;53.678;9.856;2022-09-09T00:31:04;100593.44;;;14.41;100.00
52839;BME280;39219;53.678;9.856;2022-09-09T00:33:36;100598.97;;;14.36;100.00
52839;BME280;39219;53.678;9.856;2022-09-09T00:36:11;100592.63;;;14.39;100.00
52839;BME280;39219;53.678;9.856;2022-09-09T00:38:42;100592.50;;;14.42;100.00
52839;BME280;39219;53.678;9.856;2022-09-09T00:41:14;100597.59;;;14.48;100.00
52839;BME280;39219;53.678;9.856;2022-09-09T00:43:53;100590.50;;;14.47;100.00
52839;BME280;39219;53.678;9.856;2022-09-09T00:46:43;100593.81;;;14.54;100.00
52839;BME280;39219;53.678;9.856;2022-09-09T00:49:23;100593.72;;;14.56;100.00
52839;BME280;39219;53.678;9.856;2022-09-09T00:52:01;100595.66;;;14.52;100.00
52839;BME280;39219;53.678;9.856;2022-09-09T00:54:38;100599.16;;;14.54;100.00
52839;BME280;39219;53.678;9.856;2022-09-09T00:57:14;100595.59;;;14.54;100.00
52839;BME280;39219;53.678;9.856;2022-09-09T00:59:47;100590.84;;;14.60;100.00
52839;BME280;39219;53.678;9.856;2022-09-09T01:02:22;100597.19;;;14.58;100.00
52839;BME280;39219;53.678;9.856;2022-09-09T01:04:54;100592.56;;;14.61;100.00
52839;BME280;39219;53.678;9.856;2022-09-09T01:07:24;100591.06;;;14.56;100.00
52839;BME280;39219;53.678;9.856;2022-09-09T01:09:52;100589.84;;;14.63;100.00
52839;BME280;39219;53.678;9.856;2022-09-09T01:12:26;100588.38;;;14.56;100.00
52839;BME280;39219;53.678;9.856;2022-09-09T01:15:04;100589.44;;;14.51;100.00
52839;BME280;39219;53.678;9.856;2022-09-09T01:17:48;100591.97;;;14.55;100.00
52839;BME280;39219;53.678;9.856;2022-09-09T01:20:22;100582.44;;;14.49;100.00
52839;BME280;39219;53.678;9.856;2022-09-09T01:23:02;100584.06;;;14.53;100.00
52839;BME280;39219;53.678;9.856;2022-09-09T01:26:08;100587.16;;;14.42;100.00
52839;BME280;39219;53.678;9.856;2022-09-09T01:28:37;100594.88;;;14.50;100.00
52839;BME280;39219;53.678;9.856;2022-09-09T01:31:06;100592.19;;;14.50;100.00
52839;BME280;39219;53.678;9.856;2022-09-09T01:33:35;100595.59;;;14.54;100.00
52839;BME280;39219;53.678;9.856;2022-09-09T01:36:05;100593.03;;;14.50;100.00
52839;BME280;39219;53.678;9.856;2022-09-09T01:38:34;100600.13;;;14.51;100.00
52839;BME280;39219;53.678;9.856;2022-09-09T01:41:02;100594.19;;;14.45;100.00
52839;BME280;39219;53.678;9.856;2022-09-09T01:43:29;100588.22;;;14.38;100.00
52839;BME280;39219;53.678;9.856;2022-09-09T01:46:00;100587.09;;;14.44;100.00
52839;BME280;39219;53.678;9.856;2022-09-09T01:48:27;100586.31;;;14.42;100.00
52839;BME280;39219;53.678;9.856;2022-09-09T01:50:54;100595.28;;;14.39;100.00
52839;BME280;39219;53.678;9.856;2022-09-09T01:53:21;100586.56;;;14.35;100.00
52839;BME280;39219;53.678;9.856;2022-09-09T01:55:58;100591.56;;;14.43;100.00
52839;BME280;39219;53.678;9.856;2022-09-09T01:58:33;100582.19;;;14.33;100.00
52839;BME280;39219;53.678;9.856;2022-09-09T02:01:06;100576.72;;;14.36;100.00
52839;BME280;39219;53.678;9.856;2022-09-09T02:03:36;100579.66;;;14.30;100.00
52839;BME280;39219;53.678;9.856;2022-09-09T02:06:11;100574.25;;;14.31;100.00
52839;BME280;39219;53.678;9.856;2022-09-09T02:08:43;100575.69;;;14.18;100.00
52839;BME280;39219;53.678;9.856;2022-09-09T02:11:14;100585.56;;;14.16;100.00
52839;BME280;39219;53.678;9.856;2022-09-09T02:13:44;100575.69;;;14.18;100.00
52839;BME280;39219;53.678;9.856;2022-09-09T02:16:15;100587.56;;;14.11;100.00
52839;BME280;39219;53.678;9.856;2022-09-09T02:18:48;100587.44;;;14.14;100.00
52839;BME280;39219;53.678;9.856;2022-09-09T02:21:17;100583.97;;;14.12;100.00
52839;BME280;39219;53.678;9.856;2022-09-09T02:23:44;100596.38;;;14.13;100.00
52839;BME280;39219;53.678;9.856;2022-09-09T02:26:13;100587.56;;;14.11;100.00
52839;BME280;39219;53.678;9.856;2022-09-09T02:28:47;100593.72;;;14.13;100.00
52839;BME280;39219;53.678;9.856;2022-09-09T02:31:15;100579.38;;;14.15;100.00
52839;BME280;39219;53.678;9.856;2022-09-09T02:33:44;100576.63;;;14.17;100.00
52839;BME280;39219;53.678;9.856;2022-09-09T02:36:12;100589.19;;;14.15;100.00
52839;BME280;39219;53.678;9.856;2022-09-09T02:38:45;100580.56;;;14.08;100.00
52839;BME280;39219;53.678;9.856;2022-09-09T02:41:15;100578.81;;;14.07;100.00
52839;BME280;39219;53.678;9.856;2022-09-09T02:43:42;100587.69;;;14.07;100.00
52839;BME280;39219;53.678;9.856;2022-09-09T02:46:21;100574.59;;;14.01;100.00
52839;BME280;39219;53.678;9.856;2022-09-09T02:48:55;100577.38;;;13.98;100.00
52839;BME280;39219;53.678;9.856;2022-09-09T02:51:27;100579.25;;;13.96;100.00
52839;BME280;39219;53.678;9.856;2022-09-09T02:54:04;100574.72;;;13.98;100.00
52839;BME280;39219;53.678;9.856;2022-09-09T02:56:37;100573.09;;;13.94;100.00
52839;BME280;39219;53.678;9.856;2022-09-09T02:59:05;100579.94;;;14.01;100.00
52839;BME280;39219;53.678;9.856;2022-09-09T03:01:33;100572.13;;;13.97;100.00
52839;BME280;39219;53.678;9.856;2022-09-09T03:04:01;100571.31;;;13.95;100.00
52839;BME280;39219;53.678;9.856;2022-09-09T03:06:28;100573.50;;;13.85;100.00
52839;BME280;39219;53.678;9.856;2022-09-09T03:08:54;100575.41;;;13.81;100.00
52839;BME280;39219;53.678;9.856;2022-09-09T03:11:23;100574.53;;;13.81;100.00
52839;BME280;39219;53.678;9.856;2022-09-09T03:13:49;100580.28;;;13.70;100.00
52839;BME280;39219;53.678;9.856;2022-09-09T03:16:16;100575.59;;;13.76;100.00
52839;BME280;39219;53.678;9.856;2022-09-09T03:18:44;100586.25;;;13.76;100.00
52839;BME280;39219;53.678;9.856;2022-09-09T03:21:11;100577.34;;;13.77;100.00
52839;BME280;39219;53.678;9.856;2022-09-09T03:23:37;100571.44;;;13.69;100.00
52839;BME280;39219;53.678;9.856;2022-09-09T03:26:04;100579.72;;;13.61;100.00
52839;BME280;39219;53.678;9.856;2022-09-09T03:28:30;100581.56;;;13.59;100.00
52839;BME280;39219;53.678;9.856;2022-09-09T03:30:59;100579.09;;;13.55;100.00
52839;BME280;39219;53.678;9.856;2022-09-09T03:33:25;100575.69;;;13.51;100.00
52839;BME280;39219;53.678;9.856;2022-09-09T03:35:54;100577.44;;;13.52;100.00
52839;BME280;39219;53.678;9.856;2022-09-09T03:38:22;100574.81;;;13.51;100.00
52839;BME280;39219;53.678;9.856;2022-09-09T03:40:49;100578.59;;;13.45;100.00
52839;BME280;39219;53.678;9.856;2022-09-09T03:43:16;100578.03;;;13.35;100.00
52839;BME280;39219;53.678;9.856;2022-09-09T03:45:45;100583.34;;;13.35;100.00
52839;BME280;39219;53.678;9.856;2022-09-09T03:48:12;100581.84;;;13.28;100.00
52839;BME280;39219;53.678;9.856;2022-09-09T03:50:39;100574.63;;;13.31;100.00
52839;BME280;39219;53.678;9.856;2022-09-09T03:53:07;100584.28;;;13.34;100.00
52839;BME280;39219;53.678;9.856;2022-09-09T03:55:33;100584.97;;;13.39;100.00
52839;BME280;39219;53.678;9.856;2022-09-09T03:58:00;100587.00;;;13.32;100.00
52839;BME280;39219;53.678;9.856;2022-09-09T04:00:26;100582.72;;;13.28;100.00
52839;BME280;39219;53.678;9.856;2022-09-09T04:02:54;100577.28;;;13.31;100.00
52839;BME280;39219;53.678;9.856;2022-09-09T04:05:23;100582.66;;;13.30;100.00
52839;BME280;39219;53.678;9.856;2022-09-09T04:07:49;100583.88;;;13.21;100.00
52839;BME280;39219;53.678;9.856;2022-09-09T04:10:17;100588.50;;;13.16;100.00
52839;BME280;39219;53.678;9.856;2022-09-09T04:12:44;100591.34;;;13.11;100.00
52839;BME280;39219;53.678;9.856;2022-09-09T04:15:11;100584.44;;;13.06;100.00
52839;BME280;39219;53.678;9.856;2022-09-09T04:17:37;100581.78;;;13.06;100.00
52839;BME280;39219;53.678;9.856;2022-09-09T04:20:04;100585.69;;;12.95;100.00
52839;BME280;39219;53.678;9.856;2022-09-09T04:22:32;100584.03;;;12.93;100.00
52839;BME280;39219;53.678;9.856;2022-09-09T04:24:59;100589.34;;;12.93;100.00
52839;BME280;39219;53.678;9.856;2022-09-09T04:27:27;100594.03;;;12.86;100.00
52839;BME280;39219;53.678;9.856;2022-09-09T04:29:54;100597.44;;;12.89;100.00
52839;BME280;39219;53.678;9.856;2022-09-09T04:32:21;100599.19;;;12.91;100.00
52839;BME280;39219;53.678;9.856;2022-09-09T04:34:48;100606.19;;;12.93;100.00
52839;BME280;39219;53.678;9.856;2022-09-09T04:37:14;100601.66;;;12.97;100.00
52839;BME280;39219;53.678;9.856;2022-09-09T04:39:41;100609.53;;;13.00;100.00
52839;BME280;39219;53.678;9.856;2022-09-09T04:42:08;100602.06;;;13.10;100.00
52839;BME280;39219;53.678;9.856;2022-09-09T04:44:36;100599.47;;;13.08;100.00
52839;BME280;39219;53.678;9.856;2022-09-09T04:47:02;100602.75;;;13.15;100.00
52839;BME280;39219;53.678;9.856;2022-09-09T04:49:29;100603.56;;;13.17;100.00
52839;BME280;39219;53.678;9.856;2022-09-09T04:51:56;100607.06;;;13.19;100.00
52839;BME280;39219;53.678;9.856;2022-09-09T04:54:23;100608.66;;;13.25;100.00
52839;BME280;39219;53.678;9.856;2022-09-09T04:56:50;100610.34;;;13.26;100.00
52839;BME280;39219;53.678;9.856;2022-09-09T04:59:16;100619.34;;;13.23;100.00
52839;BME280;39219;53.678;9.856;2022-09-09T05:01:44;100623.84;;;13.23;100.00
52839;BME280;39219;53.678;9.856;2022-09-09T05:04:11;100613.97;;;13.25;100.00
52839;BME280;39219;53.678;9.856;2022-09-09T05:06:37;100609.38;;;13.28;100.00
52839;BME280;39219;53.678;9.856;2022-09-09T05:09:04;100606.72;;;13.28;100.00
52839;BME280;39219;53.678;9.856;2022-09-09T05:11:31;100612.09;;;13.27;100.00
52839;BME280;39219;53.678;9.856;2022-09-09T05:14:01;100611.34;;;13.23;100.00
52839;BME280;39219;53.678;9.856;2022-09-09T05:16:27;100618.44;;;13.24;100.00
52839;BME280;39219;53.678;9.856;2022-09-09T05:18:55;100619.53;;;13.18;100.00
52839;BME280;39219;53.678;9.856;2022-09-09T05:21:23;100624.97;;;13.15;100.00
52839;BME280;39219;53.678;9.856;2022-09-09T05:23:50;100627.88;;;13.09;100.00
52839;BME280;39219;53.678;9.856;2022-09-09T05:26:18;100633.94;;;13.13;100.00
52839;BME280;39219;53.678;9.856;2022-09-09T05:28:45;100633.78;;;13.17;100.00
52839;BME280;39219;53.678;9.856;2022-09-09T05:31:13;100633.44;;;13.27;100.00
52839;BME280;39219;53.678;9.856;2022-09-09T05:33:41;100626.94;;;13.34;100.00
52839;BME280;39219;53.678;9.856;2022-09-09T05:36:11;100622.44;;;13.36;100.00
52839;BME280;39219;53.678;9.856;2022-09-09T05:38:38;100626.03;;;13.35;100.00
52839;BME280;39219;53.678;9.856;2022-09-09T05:41:06;100626.94;;;13.34;100.00
52839;BME280;39219;53.678;9.856;2022-09-09T05:43:33;100632.25;;;13.36;100.00
52839;BME280;39219;53.678;9.856;2022-09-09T05:46:02;100640.56;;;13.52;100.00
52839;BME280;39219;53.678;9.856;2022-09-09T05:48:29;100638.00;;;13.48;100.00
52839;BME280;39219;53.678;9.856;2022-09-09T05:50:57;100644.41;;;13.68;100.00
52839;BME280;39219;53.678;9.856;2022-09-09T05:53:25;100642.31;;;13.76;100.00
52839;BME280;39219;53.678;9.856;2022-09-09T05:55:58;100648.84;;;13.91;100.00
52839;BME280;39219;53.678;9.856;2022-09-09T05:58:25;100655.69;;;13.99;100.00
52839;BME280;39219;53.678;9.856;2022-09-09T06:00:52;100653.47;;;14.10;100.00
52839;BME280;39219;53.678;9.856;2022-09-09T06:03:20;100655.88;;;14.16;100.00
52839;BME280;39219;53.678;9.856;2022-09-09T06:05:57;100662.16;;;14.15;100.00
52839;BME280;39219;53.678;9.856;2022-09-09T06:08:24;100658.03;;;14.29;100.00
52839;BME280;39219;53.678;9.856;2022-09-09T06:10:51;100664.47;;;14.47;100.00
52839;BME280;39219;53.678;9.856;2022-09-09T06:13:18;100669.09;;;14.64;100.00
52839;BME280;39219;53.678;9.856;2022-09-09T06:15:49;100671.41;;;14.73;100.00
52839;BME280;39219;53.678;9.856;2022-09-09T06:18:16;100668.69;;;14.95;100.00
52839;BME280;39219;53.678;9.856;2022-09-09T06:20:43;100674.22;;;15.12;100.00
52839;BME280;39219;53.678;9.856;2022-09-09T06:23:09;100681.91;;;15.40;100.00
52839;BME280;39219;53.678;9.856;2022-09-09T06:25:38;100682.28;;;15.51;100.00
52839;BME280;39219;53.678;9.856;2022-09-09T06:28:05;100675.72;;;15.59;100.00
52839;BME280;39219;53.678;9.856;2022-09-09T06:30:32;100674.53;;;15.45;100.00
52839;BME280;39219;53.678;9.856;2022-09-09T06:32:58;100688.06;;;15.42;100.00
52839;BME280;39219;53.678;9.856;2022-09-09T06:35:25;100683.84;;;15.36;100.00
52839;BME280;39219;53.678;9.856;2022-09-09T06:37:51;100676.63;;;15.38;100.00
52839;BME280;39219;53.678;9.856;2022-09-09T06:40:18;100686.53;;;15.76;100.00
52839;BME280;39219;53.678;9.856;2022-09-09T06:42:46;100679.94;;;15.83;100.00
52839;BME280;39219;53.678;9.856;2022-09-09T06:45:13;100677.72;;;15.53;100.00
52839;BME280;39219;53.678;9.856;2022-09-09T06:47:39;100680.38;;;15.34;100.00
52839;BME280;39219;53.678;9.856;2022-09-09T06:50:06;100686.25;;;15.43;100.00
52839;BME280;39219;53.678;9.856;2022-09-09T06:52:33;100679.59;;;15.51;100.00
52839;BME280;39219;53.678;9.856;2022-09-09T06:54:59;100681.78;;;15.62;100.00
52839;BME280;39219;53.678;9.856;2022-09-09T06:57:26;100681.88;;;15.61;100.00
52839;BME280;39219;53.678;9.856;2022-09-09T06:59:54;100679.50;;;15.74;100.00
52839;BME280;39219;53.678;9.856;2022-09-09T07:02:20;100675.31;;;16.06;100.00
52839;BME280;39219;53.678;9.856;2022-09-09T07:04:46;100676.09;;;16.47;100.00
52839;BME280;39219;53.678;9.856;2022-09-09T07:07:15;100679.72;;;16.63;100.00
52839;BME280;39219;53.678;9.856;2022-09-09T07:09:43;100673.69;;;16.77;100.00
52839;BME280;39219;53.678;9.856;2022-09-09T07:12:12;100686.97;;;16.61;100.00
52839;BME280;39219;53.678;9.856;2022-09-09T07:14:38;100682.81;;;16.73;100.00
52839;BME280;39219;53.678;9.856;2022-09-09T07:17:06;100691.22;;;16.48;100.00
52839;BME280;39219;53.678;9.856;2022-09-09T07:19:32;100681.94;;;16.55;100.00
52839;BME280;39219;53.678;9.856;2022-09-09T07:21:59;100694.06;;;16.45;100.00
52839;BME280;39219;53.678;9.856;2022-09-09T07:24:27;100694.84;;;16.64;100.00
52839;BME280;39219;53.678;9.856;2022-09-09T07:26:55;100698.47;;;16.63;100.00
52839;BME280;39219;53.678;9.856;2022-09-09T07:29:21;100689.97;;;16.55;100.00
52839;BME280;39219;53.678;9.856;2022-09-09T07:31:47;100697.81;;;16.77;100.00
52839;BME280;39219;53.678;9.856;2022-09-09T07:34:15;100702.72;;;18.07;100.00
52839;BME280;39219;53.678;9.856;2022-09-09T07:36:42;100701.50;;;18.44;100.00
52839;BME280;39219;53.678;9.856;2022-09-09T07:39:10;100699.25;;;17.71;100.00
52839;BME280;39219;53.678;9.856;2022-09-09T07:41:39;100700.03;;;17.73;100.00
52839;BME280;39219;53.678;9.856;2022-09-09T07:44:08;100701.22;;;17.34;100.00
52839;BME280;39219;53.678;9.856;2022-09-09T07:46:36;100705.41;;;17.04;100.00
52839;BME280;39219;53.678;9.856;2022-09-09T07:49:05;100690.41;;;17.00;100.00
52839;BME280;39219;53.678;9.856;2022-09-09T07:51:34;100692.94;;;17.03;100.00
52839;BME280;39219;53.678;9.856;2022-09-09T07:54:03;100700.28;;;16.99;100.00
52839;BME280;39219;53.678;9.856;2022-09-09T07:56:31;100697.03;;;17.10;100.00
52839;BME280;39219;53.678;9.856;2022-09-09T07:58:58;100708.19;;;17.20;100.00
52839;BME280;39219;53.678;9.856;2022-09-09T08:01:26;100705.88;;;17.30;100.00
52839;BME280;39219;53.678;9.856;2022-09-09T08:03:55;100712.34;;;17.26;100.00
52839;BME280;39219;53.678;9.856;2022-09-09T08:06:24;100711.72;;;17.21;100.00
52839;BME280;39219;53.678;9.856;2022-09-09T08:08:53;100714.41;;;17.38;100.00
52839;BME280;39219;53.678;9.856;2022-09-09T08:11:21;100721.75;;;17.68;100.00
52839;BME280;39219;53.678;9.856;2022-09-09T08:13:49;100727.06;;;18.19;100.00
52839;BME280;39219;53.678;9.856;2022-09-09T08:16:18;100725.34;;;18.50;100.00
52839;BME280;39219;53.678;9.856;2022-09-09T08:18:46;100725.47;;;18.79;100.00
52839;BME280;39219;53.678;9.856;2022-09-09T08:21:15;100724.25;;;18.69;100.00
52839;BME280;39219;53.678;9.856;2022-09-09T08:23:44;100736.13;;;19.28;100.00
52839;BME280;39219;53.678;9.856;2022-09-09T08:26:13;100727.59;;;20.22;96.98
52839;BME280;39219;53.678;9.856;2022-09-09T08:28:40;100735.09;;;21.14;92.70
52839;BME280;39219;53.678;9.856;2022-09-09T08:31:10;100740.19;;;21.32;90.34
52839;BME280;39219;53.678;9.856;2022-09-09T08:33:37;100738.13;;;21.09;90.17
52839;BME280;39219;53.678;9.856;2022-09-09T08:36:04;100729.34;;;19.94;91.50
52839;BME280;39219;53.678;9.856;2022-09-09T08:38:31;100744.38;;;19.84;96.28
52839;BME280;39219;53.678;9.856;2022-09-09T08:41:03;100737.16;;;19.25;100.00
52839;BME280;39219;53.678;9.856;2022-09-09T08:43:34;100742.13;;;18.70;100.00
52839;BME280;39219;53.678;9.856;2022-09-09T08:46:06;100741.94;;;19.05;100.00
52839;BME280;39219;53.678;9.856;2022-09-09T08:48:46;100743.53;;;19.38;100.00
52839;BME280;39219;53.678;9.856;2022-09-09T08:51:14;100745.81;;;19.30;100.00
52839;BME280;39219;53.678;9.856;2022-09-09T08:53:43;100750.53;;;18.96;100.00
52839;BME280;39219;53.678;9.856;2022-09-09T08:56:14;100741.44;;;18.67;100.00
52839;BME280;39219;53.678;9.856;2022-09-09T08:58:47;100744.88;;;18.85;100.00
52839;BME280;39219;53.678;9.856;2022-09-09T09:01:24;100749.91;;;19.07;100.00
52839;BME280;39219;53.678;9.856;2022-09-09T09:03:56;100753.53;;;19.36;100.00
52839;BME280;39219;53.678;9.856;2022-09-09T09:06:35;100751.38;;;19.27;100.00
52839;BME280;39219;53.678;9.856;2022-09-09T09:09:11;100757.91;;;19.23;100.00
52839;BME280;39219;53.678;9.856;2022-09-09T09:11:45;100756.56;;;19.16;100.00
52839;BME280;39219;53.678;9.856;2022-09-09T09:14:18;100759.19;;;19.32;100.00
52839;BME280;39219;53.678;9.856;2022-09-09T09:16:48;100752.28;;;18.65;100.00
52839;BME280;39219;53.678;9.856;2022-09-09T09:19:17;100761.06;;;18.69;100.00
52839;BME280;39219;53.678;9.856;2022-09-09T09:21:48;100749.69;;;18.31;100.00
52839;BME280;39219;53.678;9.856;2022-09-09T09:24:18;100757.78;;;18.47;100.00
52839;BME280;39219;53.678;9.856;2022-09-09T09:26:45;100751.50;;;18.79;100.00
52839;BME280;39219;53.678;9.856;2022-09-09T09:29:15;100749.78;;;18.46;100.00
52839;BME280;39219;53.678;9.856;2022-09-09T09:31:45;100747.53;;;18.38;100.00
52839;BME280;39219;53.678;9.856;2022-09-09T09:34:14;100749.09;;;18.42;100.00
52839;BME280;39219;53.678;9.856;2022-09-09T09:36:43;100753.69;;;18.56;100.00
52839;BME280;39219;53.678;9.856;2022-09-09T09:39:22;100746.75;;;18.52;100.00
52839;BME280;39219;53.678;9.856;2022-09-09T09:41:49;100756.38;;;18.56;100.00
52839;BME280;39219;53.678;9.856;2022-09-09T09:44:25;100750.38;;;18.67;98.88
52839;BME280;39219;53.678;9.856;2022-09-09T09:46:52;100746.94;;;18.95;99.52
52839;BME280;39219;53.678;9.856;2022-09-09T09:49:19;100759.84;;;19.21;98.48
52839;BME280;39219;53.678;9.856;2022-09-09T09:51:46;100756.47;;;19.62;94.65
52839;BME280;39219;53.678;9.856;2022-09-09T09:54:20;100754.34;;;20.25;96.48
52839;BME280;39219;53.678;9.856;2022-09-09T09:56:48;100762.97;;;20.87;91.13
52839;BME280;39219;53.678;9.856;2022-09-09T09:59:33;100760.22;;;21.01;89.03
52839;BME280;39219;53.678;9.856;2022-09-09T10:02:16;100763.88;;;21.00;84.68
52839;BME280;39219;53.678;9.856;2022-09-09T10:04:43;100763.84;;;20.88;84.58
52839;BME280;39219;53.678;9.856;2022-09-09T10:07:12;100763.63;;;21.31;88.45
52839;BME280;39219;53.678;9.856;2022-09-09T10:09:38;100762.03;;;21.54;84.49
52839;BME280;39219;53.678;9.856;2022-09-09T10:12:14;100757.31;;;21.71;83.21
52839;BME280;39219;53.678;9.856;2022-09-09T10:14:51;100762.16;;;22.04;81.37
52839;BME280;39219;53.678;9.856;2022-09-09T10:17:27;100765.91;;;22.15;82.28
52839;BME280;39219;53.678;9.856;2022-09-09T10:20:14;100762.47;;;22.13;79.37
52839;BME280;39219;53.678;9.856;2022-09-09T10:22:47;100761.94;;;22.58;76.42
52839;BME280;39219;53.678;9.856;2022-09-09T10:25:32;100764.53;;;22.59;80.05
52839;BME280;39219;53.678;9.856;2022-09-09T10:28:24;100758.41;;;22.93;78.66
52839;BME280;39219;53.678;9.856;2022-09-09T10:31:04;100759.22;;;23.06;75.54
52839;BME280;39219;53.678;9.856;2022-09-09T10:33:43;100755.31;;;22.86;73.23
52839;BME280;39219;53.678;9.856;2022-09-09T10:36:13;100757.66;;;23.40;78.20
52839;BME280;39219;53.678;9.856;2022-09-09T10:38:45;100751.00;;;23.08;72.96
52839;BME280;39219;53.678;9.856;2022-09-09T10:41:19;100747.19;;;23.58;74.52
52839;BME280;39219;53.678;9.856;2022-09-09T10:44:17;100751.91;;;23.67;74.26
52839;BME280;39219;53.678;9.856;2022-09-09T10:47:05;100748.19;;;23.91;72.36
52839;BME280;39219;53.678;9.856;2022-09-09T10:49:54;100756.56;;;23.65;70.24
52839;BME280;39219;53.678;9.856;2022-09-09T10:52:31;100757.81;;;23.72;70.66
52839;BME280;39219;53.678;9.856;2022-09-09T10:55:02;100751.75;;;23.57;71.79
52839;BME280;39219;53.678;9.856;2022-09-09T10:57:39;100764.84;;;23.86;66.62
52839;BME280;39219;53.678;9.856;2022-09-09T11:00:16;100760.72;;;23.46;65.76
52839;BME280;39219;53.678;9.856;2022-09-09T11:02:48;100756.41;;;23.19;70.86
52839;BME280;39219;53.678;9.856;2022-09-09T11:05:19;100759.19;;;22.33;72.44
52839;BME280;39219;53.678;9.856;2022-09-09T11:07:49;100752.31;;;22.16;78.16
52839;BME280;39219;53.678;9.856;2022-09-09T11:10:22;100748.63;;;22.17;74.02
52839;BME280;39219;53.678;9.856;2022-09-09T11:12:53;100747.19;;;22.25;75.20
52839;BME280;39219;53.678;9.856;2022-09-09T11:15:28;100744.31;;;22.02;76.81
52839;BME280;39219;53.678;9.856;2022-09-09T11:17:59;100742.78;;;22.61;71.21
52839;BME280;39219;53.678;9.856;2022-09-09T11:20:27;100744.66;;;22.72;73.10
52839;BME280;39219;53.678;9.856;2022-09-09T11:22:57;100745.41;;;22.74;73.29
52839;BME280;39219;53.678;9.856;2022-09-09T11:25:29;100742.94;;;22.46;72.05
52839;BME280;39219;53.678;9.856;2022-09-09T11:28:10;100748.63;;;22.17;75.15
52839;BME280;39219;53.678;9.856;2022-09-09T11:30:48;100739.56;;;22.56;76.48
52839;BME280;39219;53.678;9.856;2022-09-09T11:33:36;100740.88;;;22.50;75.61
52839;BME280;39219;53.678;9.856;2022-09-09T11:36:22;100747.00;;;22.15;73.66
52839;BME280;39219;53.678;9.856;2022-09-09T11:38:53;100746.50;;;21.97;76.31
52839;BME280;39219;53.678;9.856;2022-09-09T11:41:23;100744.22;;;22.41;77.71
52839;BME280;39219;53.678;9.856;2022-09-09T11:43:51;100745.31;;;22.38;75.47
52839;BME280;39219;53.678;9.856;2022-09-09T11:46:20;100744.22;;;22.78;73.07
52839;BME280;39219;53.678;9.856;2022-09-09T11:48:59;100757.91;;;22.88;71.58
52839;BME280;39219;53.678;9.856;2022-09-09T11:51:28;100745.66;;;22.21;74.30
52839;BME280;39219;53.678;9.856;2022-09-09T11:53:56;100737.44;;;21.85;76.49
52839;BME280;39219;53.678;9.856;2022-09-09T11:56:26;100748.91;;;22.26;73.97
52839;BME280;39219;53.678;9.856;2022-09-09T11:58:58;100751.19;;;22.93;74.45
52839;BME280;39219;53.678;9.856;2022-09-09T12:01:33;100762.94;;;23.17;71.22
52839;BME280;39219;53.678;9.856;2022-09-09T12:04:25;100758.53;;;23.16;74.94
52839;BME280;39219;53.678;9.856;2022-09-09T12:06:56;100748.94;;;23.93;71.04
52839;BME280;39219;53.678;9.856;2022-09-09T12:09:29;100745.13;;;23.95;69.19
52839;BME280;39219;53.678;9.856;2022-09-09T12:12:22;100751.91;;;23.90;66.71
52839;BME280;39219;53.678;9.856;2022-09-09T12:17:48;100745.31;;;23.35;70.10
52839;BME280;39219;53.678;9.856;2022-09-09T12:20:20;100738.94;;;23.71;70.51
52839;BME280;39219;53.678;9.856;2022-09-09T12:22:59;100734.03;;;23.87;67.44
52839;BME280;39219;53.678;9.856;2022-09-09T12:25:38;100729.72;;;24.19;71.10
52839;BME280;39219;53.678;9.856;2022-09-09T12:28:15;100737.28;;;24.04;71.05
52839;BME280;39219;53.678;9.856;2022-09-09T12:30:49;100738.78;;;24.52;64.67
52839;BME280;39219;53.678;9.856;2022-09-09T12:33:19;100739.69;;;24.85;65.43
52839;BME280;39219;53.678;9.856;2022-09-09T12:35:53;100739.81;;;24.51;63.31
52839;BME280;39219;53.678;9.856;2022-09-09T12:38:28;100736.00;;;24.19;63.07
52839;BME280;39219;53.678;9.856;2022-09-09T12:40:59;100739.78;;;23.48;65.10
52839;BME280;39219;53.678;9.856;2022-09-09T12:43:26;100737.78;;;23.03;65.42
52839;BME280;39219;53.678;9.856;2022-09-09T12:45:55;100738.44;;;23.07;69.37
52839;BME280;39219;53.678;9.856;2022-09-09T12:48:32;100732.03;;;23.08;69.15
52839;BME280;39219;53.678;9.856;2022-09-09T12:51:01;100728.69;;;23.04;68.66
52839;BME280;39219;53.678;9.856;2022-09-09T12:53:30;100730.41;;;23.05;68.91
52839;BME280;39219;53.678;9.856;2022-09-09T12:55:59;100725.69;;;22.85;68.65
52839;BME280;39219;53.678;9.856;2022-09-09T12:58:28;100734.28;;;23.14;69.51
52839;BME280;39219;53.678;9.856;2022-09-09T13:00:58;100736.72;;;23.64;71.08
52839;BME280;39219;53.678;9.856;2022-09-09T13:03:25;100739.56;;;23.97;67.52